AAL9110 KBTV-KSPI
Flight info
| Callsign | AAL9110 |
|---|---|
| Flight time | 2h 7m |
| Altitude | 34000 |
| Route | SYR JHW DJB |
| Aircraft | B738/M-VGDW/C |
Departure
| Time | 2026-05-05 02:40 |
|---|---|
| Airport | Patrick Leahy Burlington International Airport (KBTV) |
Arrival
| Time | 2026-05-05 04:47 |
|---|---|
| Airport | Abraham Lincoln Capital Airport (KSPI) |
| Time | Latitude | Longitude | Altitude | Speed | Heading |
|---|---|---|---|---|---|
| 2026-05-05 02:26 | 44.46980 | -73.15416 | 336 ft | 0 kts | 272° |
| 2026-05-05 02:32 | 44.46980 | -73.15407 | 336 ft | 2 kts | 272° |
| 2026-05-05 02:32 | 44.46977 | -73.15386 | 336 ft | 2 kts | 307° |
| 2026-05-05 02:32 | 44.46965 | -73.15373 | 336 ft | 2 kts | 339° |
| 2026-05-05 02:32 | 44.46959 | -73.15370 | 336 ft | 1 kts | 358° |
| 2026-05-05 02:33 | 44.46954 | -73.15369 | 336 ft | 0 kts | 353° |
| 2026-05-05 02:36 | 44.46966 | -73.15369 | 336 ft | 6 kts | 5° |
| 2026-05-05 02:36 | 44.47045 | -73.15362 | 335 ft | 15 kts | 358° |
| 2026-05-05 02:37 | 44.47158 | -73.15412 | 333 ft | 20 kts | 318° |
| 2026-05-05 02:37 | 44.47261 | -73.15577 | 329 ft | 21 kts | 309° |
| 2026-05-05 02:37 | 44.47362 | -73.15740 | 325 ft | 23 kts | 311° |
| 2026-05-05 02:37 | 44.47473 | -73.15919 | 321 ft | 25 kts | 311° |
| 2026-05-05 02:38 | 44.47584 | -73.16099 | 317 ft | 24 kts | 310° |
| 2026-05-05 02:38 | 44.47699 | -73.16284 | 314 ft | 18 kts | 311° |
| 2026-05-05 02:38 | 44.47786 | -73.16425 | 311 ft | 20 kts | 311° |
| 2026-05-05 02:38 | 44.47881 | -73.16578 | 309 ft | 20 kts | 311° |
| 2026-05-05 02:39 | 44.47958 | -73.16674 | 307 ft | 9 kts | 355° |
| 2026-05-05 02:39 | 44.48021 | -73.16624 | 305 ft | 12 kts | 42° |
| 2026-05-05 02:39 | 44.48017 | -73.16508 | 303 ft | 15 kts | 128° |
| 2026-05-05 02:39 | 44.47823 | -73.16193 | 305 ft | 86 kts | 130° |
| 2026-05-05 02:40 | 44.47244 | -73.15256 | 365 ft | 163 kts | 133° |
| 2026-05-05 02:40 | 44.46484 | -73.13973 | 1143 ft | 180 kts | 135° |
| 2026-05-05 02:40 | 44.45453 | -73.13066 | 2091 ft | 184 kts | 174° |
| 2026-05-05 02:40 | 44.44263 | -73.13436 | 2897 ft | 184 kts | 219° |
| 2026-05-05 02:41 | 44.43650 | -73.14980 | 3678 ft | 196 kts | 259° |
| 2026-05-05 02:41 | 44.43709 | -73.16969 | 4337 ft | 218 kts | 271° |
| 2026-05-05 02:41 | 44.43856 | -73.19105 | 5259 ft | 228 kts | 270° |
| 2026-05-05 02:41 | 44.43798 | -73.21328 | 6145 ft | 238 kts | 259° |
| 2026-05-05 02:42 | 44.43370 | -73.23563 | 7072 ft | 246 kts | 249° |
| 2026-05-05 02:42 | 44.42655 | -73.25714 | 8134 ft | 251 kts | 244° |
| 2026-05-05 02:42 | 44.41797 | -73.27862 | 9134 ft | 257 kts | 243° |
| 2026-05-05 02:42 | 44.40894 | -73.30016 | 10095 ft | 262 kts | 243° |
| 2026-05-05 02:43 | 44.39977 | -73.32216 | 10903 ft | 273 kts | 243° |
| 2026-05-05 02:43 | 44.39012 | -73.34558 | 11622 ft | 286 kts | 243° |
| 2026-05-05 02:43 | 44.38016 | -73.36990 | 12565 ft | 292 kts | 244° |
| 2026-05-05 02:43 | 44.36998 | -73.39474 | 13503 ft | 298 kts | 244° |
| 2026-05-05 02:44 | 44.35982 | -73.41952 | 14442 ft | 301 kts | 244° |
| 2026-05-05 02:44 | 44.34945 | -73.44479 | 15340 ft | 306 kts | 244° |
| 2026-05-05 02:44 | 44.33886 | -73.47058 | 16172 ft | 311 kts | 244° |
| 2026-05-05 02:44 | 44.32805 | -73.49687 | 17033 ft | 315 kts | 244° |
| 2026-05-05 02:45 | 44.31722 | -73.52319 | 17867 ft | 319 kts | 244° |
| 2026-05-05 02:45 | 44.30612 | -73.55016 | 18668 ft | 324 kts | 244° |
| 2026-05-05 02:45 | 44.29495 | -73.57727 | 19461 ft | 327 kts | 244° |
| 2026-05-05 02:45 | 44.28360 | -73.60480 | 20223 ft | 331 kts | 244° |
| 2026-05-05 02:46 | 44.27207 | -73.63270 | 20933 ft | 336 kts | 244° |
| 2026-05-05 02:46 | 44.26038 | -73.66096 | 21656 ft | 339 kts | 244° |
| 2026-05-05 02:46 | 44.24853 | -73.68960 | 22341 ft | 344 kts | 244° |
| 2026-05-05 02:46 | 44.23666 | -73.71826 | 23007 ft | 348 kts | 244° |
| 2026-05-05 02:47 | 44.22448 | -73.74763 | 23682 ft | 351 kts | 244° |
| 2026-05-05 02:47 | 44.21219 | -73.77725 | 24309 ft | 356 kts | 244° |
| 2026-05-05 02:47 | 44.19987 | -73.80692 | 24952 ft | 360 kts | 244° |
| 2026-05-05 02:47 | 44.18726 | -73.83719 | 25660 ft | 361 kts | 244° |
| 2026-05-05 02:48 | 44.17471 | -73.86733 | 26254 ft | 365 kts | 244° |
| 2026-05-05 02:48 | 44.16194 | -73.89796 | 26857 ft | 368 kts | 245° |
| 2026-05-05 02:48 | 44.14907 | -73.92879 | 27433 ft | 372 kts | 244° |
| 2026-05-05 02:48 | 44.13607 | -73.95993 | 28005 ft | 375 kts | 244° |
| 2026-05-05 02:49 | 44.12299 | -73.99122 | 28601 ft | 377 kts | 245° |
| 2026-05-05 02:49 | 44.10981 | -74.02269 | 29229 ft | 378 kts | 245° |
| 2026-05-05 02:49 | 44.09652 | -74.05436 | 29756 ft | 381 kts | 245° |
| 2026-05-05 02:49 | 44.08313 | -74.08627 | 30309 ft | 383 kts | 245° |
| 2026-05-05 02:50 | 44.06960 | -74.11850 | 30795 ft | 386 kts | 245° |
| 2026-05-05 02:50 | 44.05588 | -74.15115 | 31277 ft | 389 kts | 245° |
| 2026-05-05 02:50 | 44.04227 | -74.18346 | 31912 ft | 388 kts | 245° |
| 2026-05-05 02:50 | 44.02852 | -74.21600 | 32669 ft | 384 kts | 245° |
| 2026-05-05 02:51 | 44.01511 | -74.24768 | 33340 ft | 381 kts | 245° |
| 2026-05-05 02:51 | 44.00185 | -74.27903 | 33769 ft | 382 kts | 245° |
| 2026-05-05 02:51 | 43.98824 | -74.31130 | 33785 ft | 386 kts | 245° |
| 2026-05-05 02:52 | 43.96138 | -74.37471 | 33781 ft | 381 kts | 245° |
| 2026-05-05 02:52 | 43.93463 | -74.43779 | 33774 ft | 380 kts | 245° |
| 2026-05-05 02:53 | 43.90775 | -74.50103 | 33784 ft | 382 kts | 245° |
| 2026-05-05 02:53 | 43.88095 | -74.56392 | 33780 ft | 379 kts | 245° |
| 2026-05-05 02:54 | 43.85418 | -74.62656 | 33782 ft | 380 kts | 245° |
| 2026-05-05 02:54 | 43.82731 | -74.68932 | 33777 ft | 380 kts | 244° |
| 2026-05-05 02:55 | 43.80026 | -74.75229 | 33771 ft | 379 kts | 245° |
| 2026-05-05 02:55 | 43.77341 | -74.81476 | 33775 ft | 380 kts | 244° |
| 2026-05-05 02:56 | 43.74639 | -74.87745 | 33775 ft | 379 kts | 244° |
| 2026-05-05 02:56 | 43.71942 | -74.93990 | 33776 ft | 380 kts | 244° |
| 2026-05-05 02:57 | 43.69252 | -75.00204 | 33770 ft | 379 kts | 244° |
| 2026-05-05 02:57 | 43.66546 | -75.06442 | 33768 ft | 381 kts | 244° |
| 2026-05-05 02:58 | 43.63819 | -75.12714 | 33767 ft | 380 kts | 244° |
| 2026-05-05 02:58 | 43.61107 | -75.18938 | 33777 ft | 382 kts | 244° |
| 2026-05-05 02:59 | 43.58380 | -75.25182 | 33775 ft | 381 kts | 244° |
| 2026-05-05 02:59 | 43.55656 | -75.31411 | 33768 ft | 380 kts | 244° |
| 2026-05-05 03:00 | 43.52915 | -75.37661 | 33771 ft | 381 kts | 244° |
| 2026-05-05 03:00 | 43.50201 | -75.43830 | 33769 ft | 381 kts | 244° |
| 2026-05-05 03:01 | 43.47445 | -75.50091 | 33766 ft | 382 kts | 244° |
| 2026-05-05 03:01 | 43.44705 | -75.56297 | 33771 ft | 382 kts | 244° |
| 2026-05-05 03:02 | 43.41965 | -75.62492 | 33759 ft | 381 kts | 244° |
| 2026-05-05 03:02 | 43.39209 | -75.68710 | 33758 ft | 382 kts | 243° |
| 2026-05-05 03:03 | 43.36446 | -75.74929 | 33753 ft | 381 kts | 243° |
| 2026-05-05 03:03 | 43.33686 | -75.81131 | 33756 ft | 381 kts | 243° |
| 2026-05-05 03:04 | 43.30922 | -75.87327 | 33755 ft | 382 kts | 243° |
| 2026-05-05 03:04 | 43.28157 | -75.93511 | 33743 ft | 382 kts | 243° |
| 2026-05-05 03:05 | 43.25382 | -75.99706 | 33756 ft | 383 kts | 243° |
| 2026-05-05 03:05 | 43.22607 | -76.05884 | 33746 ft | 381 kts | 243° |
| 2026-05-05 03:06 | 43.19821 | -76.12074 | 33746 ft | 382 kts | 243° |
| 2026-05-05 03:06 | 43.17074 | -76.18233 | 33747 ft | 379 kts | 245° |
| 2026-05-05 03:07 | 43.14821 | -76.24773 | 33764 ft | 380 kts | 252° |
| 2026-05-05 03:07 | 43.12957 | -76.31477 | 33750 ft | 377 kts | 254° |
| 2026-05-05 03:08 | 43.11193 | -76.38226 | 33744 ft | 377 kts | 254° |
| 2026-05-05 03:08 | 43.09416 | -76.44939 | 33751 ft | 378 kts | 254° |
| 2026-05-05 03:09 | 43.07616 | -76.51626 | 33740 ft | 376 kts | 253° |
| 2026-05-05 03:09 | 43.05796 | -76.58325 | 33735 ft | 377 kts | 254° |
| 2026-05-05 03:10 | 43.03971 | -76.65018 | 33722 ft | 376 kts | 253° |
| 2026-05-05 03:10 | 43.02142 | -76.71696 | 33732 ft | 376 kts | 253° |
| 2026-05-05 03:11 | 43.00322 | -76.78323 | 33719 ft | 374 kts | 252° |
| 2026-05-05 03:11 | 42.98489 | -76.84979 | 33721 ft | 376 kts | 253° |
| 2026-05-05 03:12 | 42.96659 | -76.91606 | 33726 ft | 375 kts | 253° |
| 2026-05-05 03:12 | 42.94821 | -76.98251 | 33722 ft | 373 kts | 253° |
| 2026-05-05 03:13 | 42.92988 | -77.04860 | 33731 ft | 374 kts | 252° |
| 2026-05-05 03:13 | 42.91145 | -77.11485 | 33722 ft | 373 kts | 252° |
| 2026-05-05 03:14 | 42.89301 | -77.18085 | 33744 ft | 375 kts | 252° |
| 2026-05-05 03:14 | 42.87452 | -77.24696 | 33741 ft | 374 kts | 252° |
| 2026-05-05 03:15 | 42.85591 | -77.31332 | 33748 ft | 375 kts | 252° |
| 2026-05-05 03:15 | 42.83722 | -77.37973 | 33757 ft | 375 kts | 252° |
| 2026-05-05 03:16 | 42.81860 | -77.44576 | 33739 ft | 373 kts | 252° |
| 2026-05-05 03:16 | 42.79995 | -77.51175 | 33746 ft | 374 kts | 252° |
| 2026-05-05 03:17 | 42.78126 | -77.57767 | 33739 ft | 373 kts | 252° |
| 2026-05-05 03:17 | 42.76243 | -77.64392 | 33725 ft | 373 kts | 252° |
| 2026-05-05 03:18 | 42.74383 | -77.70915 | 33723 ft | 371 kts | 251° |
| 2026-05-05 03:18 | 42.72512 | -77.77467 | 33741 ft | 374 kts | 251° |
| 2026-05-05 03:19 | 42.69702 | -77.87273 | 33733 ft | 372 kts | 251° |
| 2026-05-05 03:19 | 42.67813 | -77.93836 | 33741 ft | 373 kts | 251° |
| 2026-05-05 03:20 | 42.65933 | -78.00359 | 33746 ft | 372 kts | 251° |
| 2026-05-05 03:20 | 42.64039 | -78.06913 | 33745 ft | 374 kts | 251° |
| 2026-05-05 03:21 | 42.62139 | -78.13468 | 33744 ft | 373 kts | 251° |
| 2026-05-05 03:21 | 42.60244 | -78.19984 | 33744 ft | 373 kts | 251° |
| 2026-05-05 03:22 | 42.58353 | -78.26472 | 33746 ft | 371 kts | 251° |
| 2026-05-05 03:22 | 42.56444 | -78.33014 | 33743 ft | 380 kts | 251° |
| 2026-05-05 03:23 | 42.55461 | -78.36381 | 33739 ft | 391 kts | 251° |
| 2026-05-05 03:23 | 42.54451 | -78.39836 | 33739 ft | 401 kts | 251° |
| 2026-05-05 03:23 | 42.52354 | -78.46980 | 33746 ft | 407 kts | 251° |
| 2026-05-05 03:24 | 42.50259 | -78.54080 | 33737 ft | 405 kts | 251° |
| 2026-05-05 03:24 | 42.48169 | -78.61147 | 33747 ft | 408 kts | 251° |
| 2026-05-05 03:25 | 42.46057 | -78.68276 | 33742 ft | 409 kts | 250° |
| 2026-05-05 03:25 | 42.43938 | -78.75413 | 33739 ft | 408 kts | 250° |
| 2026-05-05 03:26 | 42.41828 | -78.82497 | 33744 ft | 410 kts | 250° |
| 2026-05-05 03:26 | 42.39697 | -78.89630 | 33731 ft | 408 kts | 250° |
| 2026-05-05 03:27 | 42.37572 | -78.96729 | 33737 ft | 409 kts | 250° |
| 2026-05-05 03:27 | 42.35422 | -79.03891 | 33735 ft | 409 kts | 250° |
| 2026-05-05 03:28 | 42.33290 | -79.10975 | 33742 ft | 409 kts | 250° |
| 2026-05-05 03:28 | 42.31136 | -79.18109 | 33744 ft | 409 kts | 250° |
| 2026-05-05 03:29 | 42.28992 | -79.25192 | 33741 ft | 408 kts | 250° |
| 2026-05-05 03:29 | 42.26841 | -79.32281 | 33743 ft | 409 kts | 250° |
| 2026-05-05 03:30 | 42.24698 | -79.39323 | 33755 ft | 410 kts | 250° |
| 2026-05-05 03:30 | 42.22530 | -79.46426 | 33758 ft | 410 kts | 250° |
| 2026-05-05 03:31 | 42.20355 | -79.53539 | 33752 ft | 411 kts | 250° |
| 2026-05-05 03:31 | 42.18173 | -79.60652 | 33752 ft | 411 kts | 250° |
| 2026-05-05 03:32 | 42.15976 | -79.67790 | 33750 ft | 412 kts | 249° |
| 2026-05-05 03:32 | 42.13778 | -79.74915 | 33740 ft | 412 kts | 249° |
| 2026-05-05 03:33 | 42.11576 | -79.82034 | 33745 ft | 412 kts | 249° |
| 2026-05-05 03:33 | 42.09380 | -79.89114 | 33741 ft | 411 kts | 249° |
| 2026-05-05 03:34 | 42.07166 | -79.96233 | 33738 ft | 412 kts | 249° |
| 2026-05-05 03:34 | 42.04969 | -80.03281 | 33747 ft | 413 kts | 249° |
| 2026-05-05 03:35 | 42.02743 | -80.10398 | 33747 ft | 412 kts | 249° |
| 2026-05-05 03:35 | 42.00509 | -80.17529 | 33748 ft | 414 kts | 249° |
| 2026-05-05 03:36 | 41.98279 | -80.24624 | 33750 ft | 414 kts | 249° |
| 2026-05-05 03:36 | 41.96049 | -80.31699 | 33742 ft | 413 kts | 249° |
| 2026-05-05 03:37 | 41.93807 | -80.38792 | 33736 ft | 414 kts | 249° |
| 2026-05-05 03:37 | 41.91568 | -80.45860 | 33741 ft | 414 kts | 249° |
| 2026-05-05 03:38 | 41.89306 | -80.52980 | 33743 ft | 413 kts | 249° |
| 2026-05-05 03:38 | 41.87062 | -80.60033 | 33739 ft | 414 kts | 249° |
| 2026-05-05 03:39 | 41.84795 | -80.67134 | 33744 ft | 415 kts | 248° |
| 2026-05-05 03:39 | 41.82515 | -80.74249 | 33748 ft | 416 kts | 248° |
| 2026-05-05 03:40 | 41.80233 | -80.81353 | 33737 ft | 414 kts | 248° |
| 2026-05-05 03:40 | 41.77963 | -80.88406 | 33741 ft | 415 kts | 248° |
| 2026-05-05 03:41 | 41.75679 | -80.95486 | 33738 ft | 416 kts | 248° |
| 2026-05-05 03:41 | 41.73390 | -81.02560 | 33742 ft | 416 kts | 248° |
| 2026-05-05 03:42 | 41.71079 | -81.09682 | 33734 ft | 415 kts | 248° |
| 2026-05-05 03:42 | 41.68794 | -81.16708 | 33738 ft | 415 kts | 248° |
| 2026-05-05 03:43 | 41.66480 | -81.23800 | 33749 ft | 417 kts | 248° |
| 2026-05-05 03:43 | 41.64162 | -81.30889 | 33751 ft | 417 kts | 248° |
| 2026-05-05 03:44 | 41.61844 | -81.37958 | 33750 ft | 416 kts | 248° |
| 2026-05-05 03:44 | 41.59526 | -81.45010 | 33753 ft | 418 kts | 248° |
| 2026-05-05 03:45 | 41.57174 | -81.52150 | 33749 ft | 417 kts | 248° |
| 2026-05-05 03:45 | 41.54842 | -81.59207 | 33747 ft | 419 kts | 248° |
| 2026-05-05 03:46 | 41.52500 | -81.66279 | 33745 ft | 418 kts | 247° |
| 2026-05-05 03:46 | 41.50132 | -81.73408 | 33742 ft | 420 kts | 247° |
| 2026-05-05 03:47 | 41.47777 | -81.80480 | 33742 ft | 420 kts | 247° |
| 2026-05-05 03:47 | 41.45404 | -81.87588 | 33748 ft | 420 kts | 247° |
| 2026-05-05 03:48 | 41.43034 | -81.94672 | 33746 ft | 420 kts | 248° |
| 2026-05-05 03:48 | 41.40660 | -82.01746 | 33747 ft | 420 kts | 247° |
| 2026-05-05 03:49 | 41.38282 | -82.08818 | 33744 ft | 421 kts | 247° |
| 2026-05-05 03:49 | 41.35879 | -82.15945 | 33746 ft | 420 kts | 247° |
| 2026-05-05 03:50 | 41.33522 | -82.23003 | 33807 ft | 421 kts | 248° |
| 2026-05-05 03:50 | 41.31254 | -82.30140 | 34007 ft | 421 kts | 249° |
| 2026-05-05 03:51 | 41.30167 | -82.33735 | 34125 ft | 421 kts | 250° |
| 2026-05-05 03:51 | 41.29104 | -82.37391 | 34217 ft | 420 kts | 251° |
| 2026-05-05 03:51 | 41.27128 | -82.44680 | 34150 ft | 420 kts | 252° |
| 2026-05-05 03:52 | 41.26215 | -82.48332 | 33974 ft | 418 kts | 253° |
| 2026-05-05 03:52 | 41.25357 | -82.51989 | 33875 ft | 417 kts | 255° |
| 2026-05-05 03:52 | 41.23797 | -82.59367 | 34082 ft | 419 kts | 257° |
| 2026-05-05 03:53 | 41.23092 | -82.63111 | 34220 ft | 419 kts | 258° |
| 2026-05-05 03:53 | 41.22434 | -82.66901 | 34302 ft | 419 kts | 258° |
| 2026-05-05 03:53 | 41.21293 | -82.74431 | 34095 ft | 418 kts | 260° |
| 2026-05-05 03:54 | 41.20799 | -82.78242 | 33963 ft | 416 kts | 261° |
| 2026-05-05 03:54 | 41.20369 | -82.82006 | 33926 ft | 415 kts | 262° |
| 2026-05-05 03:54 | 41.19995 | -82.85799 | 34029 ft | 416 kts | 263° |
| 2026-05-05 03:54 | 41.19676 | -82.89623 | 34171 ft | 418 kts | 264° |
| 2026-05-05 03:55 | 41.19212 | -82.97253 | 34234 ft | 418 kts | 266° |
| 2026-05-05 03:55 | 41.19064 | -83.01102 | 34075 ft | 417 kts | 268° |
| 2026-05-05 03:55 | 41.18973 | -83.04942 | 33952 ft | 415 kts | 268° |
| 2026-05-05 03:56 | 41.18970 | -83.12538 | 34077 ft | 415 kts | 271° |
| 2026-05-05 03:56 | 41.19056 | -83.16358 | 34200 ft | 417 kts | 272° |
| 2026-05-05 03:56 | 41.19201 | -83.20198 | 34255 ft | 417 kts | 273° |
| 2026-05-05 03:57 | 41.19661 | -83.27885 | 34017 ft | 417 kts | 275° |
| 2026-05-05 03:57 | 41.20340 | -83.35429 | 33990 ft | 414 kts | 277° |
| 2026-05-05 03:58 | 41.20770 | -83.39236 | 34133 ft | 417 kts | 278° |
| 2026-05-05 03:58 | 41.21250 | -83.42987 | 34259 ft | 417 kts | 279° |
| 2026-05-05 03:58 | 41.22395 | -83.50558 | 34235 ft | 417 kts | 281° |
| 2026-05-05 03:59 | 41.23044 | -83.54290 | 34054 ft | 415 kts | 282° |
| 2026-05-05 03:59 | 41.23382 | -83.57995 | 33829 ft | 400 kts | 266° |
| 2026-05-05 03:59 | 41.22700 | -83.61523 | 33728 ft | 399 kts | 245° |
| 2026-05-05 03:59 | 41.21092 | -83.64592 | 33725 ft | 413 kts | 232° |
| 2026-05-05 04:00 | 41.19074 | -83.67358 | 33712 ft | 425 kts | 226° |
| 2026-05-05 04:00 | 41.16890 | -83.70061 | 33713 ft | 428 kts | 225° |
| 2026-05-05 04:00 | 41.12646 | -83.75471 | 33718 ft | 423 kts | 230° |
| 2026-05-05 04:01 | 41.09433 | -83.81913 | 33723 ft | 419 kts | 251° |
| 2026-05-05 04:01 | 41.08036 | -83.89380 | 33727 ft | 418 kts | 259° |
| 2026-05-05 04:02 | 41.06987 | -83.96894 | 33729 ft | 417 kts | 259° |
| 2026-05-05 04:02 | 41.05873 | -84.04447 | 33734 ft | 418 kts | 259° |
| 2026-05-05 04:03 | 41.04681 | -84.11962 | 33731 ft | 418 kts | 258° |
| 2026-05-05 04:03 | 41.03439 | -84.19464 | 33730 ft | 418 kts | 258° |
| 2026-05-05 04:04 | 41.02171 | -84.26968 | 33727 ft | 419 kts | 258° |
| 2026-05-05 04:04 | 41.00894 | -84.34444 | 33713 ft | 418 kts | 258° |
| 2026-05-05 04:05 | 40.99609 | -84.41933 | 33716 ft | 419 kts | 258° |
| 2026-05-05 04:05 | 40.98317 | -84.49432 | 33722 ft | 418 kts | 258° |
| 2026-05-05 04:06 | 40.97027 | -84.56883 | 33720 ft | 418 kts | 258° |
| 2026-05-05 04:06 | 40.95721 | -84.64393 | 33733 ft | 418 kts | 258° |
| 2026-05-05 04:07 | 40.94409 | -84.71916 | 33721 ft | 419 kts | 258° |
| 2026-05-05 04:07 | 40.93099 | -84.79391 | 33712 ft | 420 kts | 258° |
| 2026-05-05 04:08 | 40.91772 | -84.86924 | 33723 ft | 418 kts | 258° |
| 2026-05-05 04:08 | 40.90448 | -84.94415 | 33714 ft | 419 kts | 258° |
| 2026-05-05 04:09 | 40.89113 | -85.01935 | 33730 ft | 418 kts | 258° |
| 2026-05-05 04:09 | 40.87786 | -85.09392 | 33718 ft | 418 kts | 258° |
| 2026-05-05 04:10 | 40.86455 | -85.16830 | 33718 ft | 417 kts | 258° |
| 2026-05-05 04:10 | 40.85126 | -85.24236 | 33726 ft | 419 kts | 258° |
| 2026-05-05 04:11 | 40.83785 | -85.31680 | 33717 ft | 417 kts | 258° |
| 2026-05-05 04:11 | 40.82435 | -85.39139 | 33727 ft | 419 kts | 258° |
| 2026-05-05 04:12 | 40.81074 | -85.46632 | 33725 ft | 417 kts | 258° |
| 2026-05-05 04:12 | 40.79724 | -85.54037 | 33724 ft | 418 kts | 258° |
| 2026-05-05 04:13 | 40.78359 | -85.61487 | 33719 ft | 417 kts | 257° |
| 2026-05-05 04:13 | 40.76994 | -85.68922 | 33721 ft | 416 kts | 257° |
| 2026-05-05 04:14 | 40.75633 | -85.76299 | 33732 ft | 416 kts | 257° |
| 2026-05-05 04:14 | 40.74261 | -85.83710 | 33731 ft | 415 kts | 257° |
| 2026-05-05 04:15 | 40.72895 | -85.91057 | 33729 ft | 416 kts | 257° |
| 2026-05-05 04:15 | 40.71514 | -85.98450 | 33730 ft | 415 kts | 257° |
| 2026-05-05 04:16 | 40.70141 | -86.05776 | 33733 ft | 416 kts | 257° |
| 2026-05-05 04:16 | 40.68742 | -86.13200 | 33733 ft | 414 kts | 257° |
| 2026-05-05 04:17 | 40.67350 | -86.20562 | 33734 ft | 415 kts | 257° |
| 2026-05-05 04:17 | 40.65964 | -86.27869 | 33728 ft | 413 kts | 257° |
| 2026-05-05 04:18 | 40.64570 | -86.35195 | 33733 ft | 412 kts | 257° |
| 2026-05-05 04:18 | 40.63163 | -86.42570 | 33729 ft | 413 kts | 256° |
| 2026-05-05 04:19 | 40.61761 | -86.49887 | 33729 ft | 413 kts | 257° |
| 2026-05-05 04:19 | 40.60364 | -86.57152 | 33720 ft | 412 kts | 256° |
| 2026-05-05 04:20 | 40.58951 | -86.64465 | 33718 ft | 412 kts | 256° |
| 2026-05-05 04:20 | 40.57536 | -86.71765 | 33715 ft | 412 kts | 256° |
| 2026-05-05 04:21 | 40.56129 | -86.79005 | 33722 ft | 411 kts | 256° |
| 2026-05-05 04:21 | 40.54712 | -86.86255 | 33726 ft | 411 kts | 256° |
| 2026-05-05 04:22 | 40.53286 | -86.93518 | 33717 ft | 409 kts | 256° |
| 2026-05-05 04:22 | 40.51858 | -87.00776 | 33717 ft | 410 kts | 256° |
| 2026-05-05 04:23 | 40.50426 | -87.08030 | 33715 ft | 411 kts | 256° |
| 2026-05-05 04:23 | 40.48995 | -87.15253 | 33710 ft | 409 kts | 256° |
| 2026-05-05 04:24 | 40.47552 | -87.22510 | 33709 ft | 410 kts | 256° |
| 2026-05-05 04:25 | 40.45388 | -87.33344 | 33716 ft | 411 kts | 256° |
| 2026-05-05 04:25 | 40.43929 | -87.40616 | 33351 ft | 413 kts | 256° |
| 2026-05-05 04:25 | 40.43203 | -87.44227 | 32859 ft | 412 kts | 256° |
| 2026-05-05 04:26 | 40.42475 | -87.47839 | 32245 ft | 413 kts | 256° |
| 2026-05-05 04:26 | 40.41736 | -87.51502 | 31571 ft | 412 kts | 256° |
| 2026-05-05 04:26 | 40.41004 | -87.55117 | 30873 ft | 413 kts | 256° |
| 2026-05-05 04:26 | 40.40269 | -87.58741 | 30358 ft | 412 kts | 256° |
| 2026-05-05 04:27 | 40.39529 | -87.62388 | 29873 ft | 416 kts | 256° |
| 2026-05-05 04:27 | 40.38784 | -87.66052 | 29354 ft | 420 kts | 256° |
| 2026-05-05 04:27 | 40.38036 | -87.69727 | 28825 ft | 419 kts | 256° |
| 2026-05-05 04:27 | 40.37284 | -87.73415 | 28292 ft | 421 kts | 256° |
| 2026-05-05 04:28 | 40.36530 | -87.77108 | 27751 ft | 422 kts | 256° |
| 2026-05-05 04:28 | 40.35771 | -87.80816 | 27208 ft | 422 kts | 256° |
| 2026-05-05 04:28 | 40.35007 | -87.84540 | 26667 ft | 425 kts | 256° |
| 2026-05-05 04:28 | 40.34239 | -87.88281 | 26116 ft | 426 kts | 256° |
| 2026-05-05 04:29 | 40.33482 | -87.91961 | 25566 ft | 426 kts | 256° |
| 2026-05-05 04:29 | 40.32704 | -87.95734 | 25001 ft | 425 kts | 255° |
| 2026-05-05 04:29 | 40.31937 | -87.99445 | 24445 ft | 422 kts | 256° |
| 2026-05-05 04:29 | 40.31175 | -88.03128 | 23886 ft | 420 kts | 255° |
| 2026-05-05 04:30 | 40.30419 | -88.06776 | 23334 ft | 416 kts | 256° |
| 2026-05-05 04:30 | 40.29665 | -88.10408 | 22781 ft | 412 kts | 256° |
| 2026-05-05 04:30 | 40.28919 | -88.13992 | 22227 ft | 409 kts | 256° |
| 2026-05-05 04:30 | 40.28174 | -88.17570 | 21670 ft | 405 kts | 256° |
| 2026-05-05 04:31 | 40.27437 | -88.21107 | 21119 ft | 403 kts | 256° |
| 2026-05-05 04:31 | 40.26709 | -88.24599 | 20572 ft | 400 kts | 256° |
| 2026-05-05 04:31 | 40.25978 | -88.28099 | 20013 ft | 395 kts | 256° |
| 2026-05-05 04:31 | 40.25263 | -88.31522 | 19473 ft | 393 kts | 256° |
| 2026-05-05 04:32 | 40.24543 | -88.34955 | 18921 ft | 390 kts | 256° |
| 2026-05-05 04:32 | 40.23826 | -88.38364 | 18456 ft | 386 kts | 257° |
| 2026-05-05 04:32 | 40.23120 | -88.41715 | 18269 ft | 384 kts | 257° |
| 2026-05-05 04:32 | 40.22411 | -88.45081 | 18147 ft | 385 kts | 257° |
| 2026-05-05 04:33 | 40.21701 | -88.48441 | 18006 ft | 385 kts | 257° |
| 2026-05-05 04:33 | 40.20986 | -88.51817 | 17855 ft | 384 kts | 257° |
| 2026-05-05 04:33 | 40.20279 | -88.55145 | 17624 ft | 385 kts | 257° |
| 2026-05-05 04:33 | 40.19562 | -88.58506 | 17188 ft | 382 kts | 257° |
| 2026-05-05 04:34 | 40.18854 | -88.61824 | 16682 ft | 380 kts | 257° |
| 2026-05-05 04:34 | 40.18148 | -88.65123 | 16149 ft | 377 kts | 256° |
| 2026-05-05 04:34 | 40.17449 | -88.68391 | 15620 ft | 374 kts | 256° |
| 2026-05-05 04:34 | 40.16751 | -88.71652 | 15086 ft | 372 kts | 256° |
| 2026-05-05 04:35 | 40.16064 | -88.74861 | 14556 ft | 368 kts | 256° |
| 2026-05-05 04:35 | 40.15372 | -88.78085 | 14029 ft | 366 kts | 256° |
| 2026-05-05 04:35 | 40.14692 | -88.81254 | 13513 ft | 365 kts | 256° |
| 2026-05-05 04:35 | 40.14016 | -88.84396 | 12992 ft | 361 kts | 256° |
| 2026-05-05 04:36 | 40.13342 | -88.87527 | 12476 ft | 358 kts | 256° |
| 2026-05-05 04:36 | 40.12666 | -88.90662 | 11970 ft | 356 kts | 256° |
| 2026-05-05 04:36 | 40.11991 | -88.93782 | 11456 ft | 354 kts | 256° |
| 2026-05-05 04:36 | 40.11338 | -88.96799 | 10977 ft | 344 kts | 256° |
| 2026-05-05 04:37 | 40.10694 | -88.99761 | 10478 ft | 334 kts | 256° |
| 2026-05-05 04:37 | 40.10073 | -89.02617 | 10074 ft | 323 kts | 256° |
| 2026-05-05 04:37 | 40.09471 | -89.05381 | 9936 ft | 305 kts | 256° |
| 2026-05-05 04:37 | 40.08912 | -89.07951 | 9605 ft | 296 kts | 256° |
| 2026-05-05 04:38 | 40.08355 | -89.10517 | 9167 ft | 290 kts | 256° |
| 2026-05-05 04:38 | 40.07815 | -89.13016 | 8770 ft | 285 kts | 256° |
| 2026-05-05 04:38 | 40.07290 | -89.15459 | 8389 ft | 279 kts | 257° |
| 2026-05-05 04:38 | 40.06773 | -89.17887 | 8004 ft | 274 kts | 257° |
| 2026-05-05 04:39 | 40.06267 | -89.20247 | 7635 ft | 269 kts | 257° |
| 2026-05-05 04:39 | 40.05763 | -89.22548 | 7277 ft | 264 kts | 256° |
| 2026-05-05 04:39 | 40.05264 | -89.24838 | 6924 ft | 260 kts | 257° |
| 2026-05-05 04:39 | 40.04783 | -89.27084 | 6572 ft | 256 kts | 257° |
| 2026-05-05 04:40 | 40.04304 | -89.29300 | 6234 ft | 252 kts | 257° |
| 2026-05-05 04:40 | 40.03828 | -89.31482 | 5884 ft | 249 kts | 257° |
| 2026-05-05 04:40 | 40.03361 | -89.33632 | 5558 ft | 246 kts | 257° |
| 2026-05-05 04:40 | 40.02893 | -89.35785 | 5236 ft | 243 kts | 257° |
| 2026-05-05 04:41 | 40.02430 | -89.37903 | 4900 ft | 244 kts | 257° |
| 2026-05-05 04:41 | 40.01966 | -89.40011 | 4734 ft | 244 kts | 257° |
| 2026-05-05 04:41 | 40.01495 | -89.42120 | 4661 ft | 242 kts | 256° |
| 2026-05-05 04:41 | 40.01033 | -89.44182 | 4543 ft | 227 kts | 257° |
| 2026-05-05 04:42 | 40.00598 | -89.46106 | 4390 ft | 216 kts | 257° |
| 2026-05-05 04:42 | 40.00184 | -89.47895 | 4254 ft | 202 kts | 257° |
| 2026-05-05 04:42 | 39.99721 | -89.49592 | 4096 ft | 196 kts | 249° |
| 2026-05-05 04:42 | 39.98930 | -89.51049 | 3947 ft | 200 kts | 231° |
| 2026-05-05 04:43 | 39.97894 | -89.52300 | 3821 ft | 201 kts | 227° |
| 2026-05-05 04:43 | 39.96835 | -89.53507 | 3689 ft | 207 kts | 227° |
| 2026-05-05 04:43 | 39.95771 | -89.54736 | 3336 ft | 205 kts | 227° |
| 2026-05-05 04:43 | 39.94723 | -89.55946 | 3059 ft | 197 kts | 227° |
| 2026-05-05 04:44 | 39.93712 | -89.57108 | 2786 ft | 185 kts | 227° |
| 2026-05-05 04:44 | 39.92792 | -89.58167 | 2552 ft | 174 kts | 227° |
| 2026-05-05 04:44 | 39.91894 | -89.59209 | 2319 ft | 174 kts | 227° |
| 2026-05-05 04:44 | 39.90988 | -89.60249 | 2082 ft | 170 kts | 227° |
| 2026-05-05 04:45 | 39.90140 | -89.61224 | 1902 ft | 161 kts | 227° |
| 2026-05-05 04:45 | 39.89282 | -89.62220 | 1644 ft | 163 kts | 225° |
| 2026-05-05 04:45 | 39.88426 | -89.63179 | 1447 ft | 161 kts | 225° |
| 2026-05-05 04:45 | 39.87603 | -89.64141 | 1222 ft | 154 kts | 228° |
| 2026-05-05 04:46 | 39.86832 | -89.65067 | 1025 ft | 148 kts | 223° |
| 2026-05-05 04:46 | 39.86058 | -89.65922 | 817 ft | 146 kts | 224° |
| 2026-05-05 04:46 | 39.85287 | -89.66805 | 637 ft | 145 kts | 220° |
| 2026-05-05 04:46 | 39.84575 | -89.67623 | 592 ft | 126 kts | 222° |
| 2026-05-05 04:47 | 39.84045 | -89.68237 | 592 ft | 59 kts | 221° |
| 2026-05-05 04:47 | 39.83876 | -89.68426 | 590 ft | 17 kts | 214° |
| 2026-05-05 04:47 | 39.83799 | -89.68355 | 589 ft | 16 kts | 86° |
| 2026-05-05 04:47 | 39.83845 | -89.68228 | 589 ft | 16 kts | 45° |
| 2026-05-05 04:48 | 39.83926 | -89.68131 | 591 ft | 15 kts | 42° |
| 2026-05-05 04:48 | 39.84004 | -89.68041 | 592 ft | 15 kts | 41° |
| 2026-05-05 04:48 | 39.84095 | -89.67937 | 592 ft | 20 kts | 41° |
| 2026-05-05 04:48 | 39.84215 | -89.67799 | 592 ft | 23 kts | 41° |
| 2026-05-05 04:49 | 39.84317 | -89.67680 | 592 ft | 16 kts | 42° |
| 2026-05-05 04:49 | 39.84404 | -89.67575 | 592 ft | 17 kts | 46° |
| 2026-05-05 04:49 | 39.84443 | -89.67430 | 592 ft | 16 kts | 78° |
| 2026-05-05 04:49 | 39.84452 | -89.67321 | 592 ft | 0 kts | 86° |
| 2026-05-05 04:50 | 39.84453 | -89.67321 | 592 ft | 0 kts | 86° |
| 2026-05-05 04:50 | 39.84452 | -89.67321 | 592 ft | 0 kts | 86° |
| 2026-05-05 04:51 | 39.84453 | -89.67321 | 592 ft | 0 kts | 86° |
| 2026-05-05 04:51 | 39.84452 | -89.67321 | 592 ft | 0 kts | 86° |